GYE weather

José Joaquín de Olmedo International Airport
Guayaquil, Guayas Province, Ecuador

Public forecast

Using degrees Celsius for public forecast. Weather courtesy of forecast.io.

Current aviation weather report (METAR) for José Joaquín de Olmedo International Airport

Retrieved 2019/11/15 09:00 UTC (2 minutes ago):

SEGU 150900Z 23008KT 9999 FEW010 BKN026 BKN100 23/20 Q1012 NOSIG RMK A2989

Aviation forecast (TAF) for José Joaquín de Olmedo International Airport

Retrieved 2019/11/15 06:43 UTC (2 hours ago):

TAF SEGU 150420Z 1506/1606 22009KT 9999 FEW010 BKN023 BKN090 FM151100 20005KT 9999 BKN026 OVC090 BECMG 1513/1514 SCT026 BKN100 BECMG 1517/1518 10006KT FM152000 22012KT 9999 BKN020 FM160100 23005KT 9999 FEW010 OVC023 TX30/1520Z TN22/1510Z